createdAt,value
2023-04-22T00:01:28.281Z,33.21
2023-04-22T00:03:58.639Z,33.22
2023-04-22T00:06:29.153Z,33.22
2023-04-22T00:08:59.441Z,33.22
2023-04-22T00:11:29.784Z,33.24
2023-04-22T00:13:59.932Z,33.30
2023-04-22T00:16:30.373Z,33.30
2023-04-22T00:19:00.932Z,33.31
2023-04-22T00:21:31.531Z,33.38
2023-04-22T00:24:01.868Z,33.37
2023-04-22T00:26:32.253Z,33.53
2023-04-22T00:30:47.311Z,33.57
2023-04-22T00:33:17.573Z,33.42
2023-04-22T00:35:49.357Z,33.43
2023-04-22T00:38:19.794Z,33.40
2023-04-22T00:40:50.064Z,33.42
2023-04-22T00:43:20.499Z,33.43
2023-04-22T00:45:51.768Z,33.45
2023-04-22T00:48:22.493Z,33.44
2023-04-22T00:50:52.839Z,33.40
2023-04-22T00:53:23.029Z,33.42
2023-04-22T00:55:53.610Z,33.43
2023-04-22T00:58:28.521Z,33.42
2023-04-22T01:00:59.595Z,33.43
2023-04-22T01:03:33.039Z,33.42
2023-04-22T01:06:03.638Z,33.39
2023-04-22T01:08:33.824Z,33.39
2023-04-22T01:11:05.208Z,33.41
2023-04-22T01:13:35.579Z,33.41
2023-04-22T01:16:07.387Z,33.43
2023-04-22T01:18:39.538Z,33.43
2023-04-22T01:21:09.849Z,33.42
2023-04-22T01:23:41.006Z,33.43
2023-04-22T01:26:10.946Z,33.43
2023-04-22T01:28:41.314Z,33.40
2023-04-22T01:31:12.119Z,33.40
2023-04-22T01:33:42.590Z,33.42
2023-04-22T01:36:14.478Z,33.39
2023-04-22T01:38:45.029Z,33.36
2023-04-22T01:41:16.996Z,33.36
2023-04-22T01:43:47.769Z,33.34
2023-04-22T01:46:20.513Z,33.34
2023-04-22T01:48:53.894Z,33.32
2023-04-22T01:51:26.086Z,33.32
2023-04-22T01:53:56.607Z,33.33
2023-04-22T01:56:27.563Z,33.32
2023-04-22T01:58:58.418Z,33.31
2023-04-22T02:01:28.919Z,33.31
2023-04-22T02:03:59.269Z,33.34
2023-04-22T02:06:29.912Z,33.32
2023-04-22T02:09:00.557Z,33.33
2023-04-22T02:11:30.894Z,33.35
2023-04-22T02:14:01.056Z,33.33
2023-04-22T02:16:31.979Z,33.36
2023-04-22T02:19:02.661Z,33.35
2023-04-22T02:21:35.108Z,33.38
2023-04-22T02:24:07.165Z,33.42
2023-04-22T02:26:37.491Z,33.40
2023-04-22T02:29:08.014Z,33.44
2023-04-22T02:31:38.275Z,33.45
2023-04-22T02:34:08.807Z,33.44
2023-04-22T02:36:39.383Z,33.46
2023-04-22T02:39:10.271Z,33.48
2023-04-22T02:41:40.934Z,33.48
2023-04-22T02:44:11.721Z,33.49
2023-04-22T02:46:42.113Z,33.45
2023-04-22T02:49:12.695Z,33.47
2023-04-22T02:51:44.007Z,33.48
2023-04-22T02:54:14.623Z,33.47
2023-04-22T02:56:44.928Z,33.50
2023-04-22T02:59:15.354Z,33.53
2023-04-22T03:01:45.707Z,33.50
2023-04-22T03:04:28.111Z,33.50
2023-04-22T03:06:58.804Z,33.51
2023-04-22T03:09:29.361Z,33.55
2023-04-22T03:11:59.955Z,33.57
2023-04-22T03:14:30.218Z,33.54
2023-04-22T03:17:00.430Z,33.55
2023-04-22T03:19:31.169Z,33.54
2023-04-22T03:22:01.799Z,33.56
2023-04-22T03:24:32.085Z,33.54
2023-04-22T03:27:06.570Z,33.58
2023-04-22T03:29:37.124Z,33.58
2023-04-22T03:32:07.520Z,33.55
2023-04-22T03:34:39.061Z,33.58
2023-04-22T03:37:12.388Z,33.57
2023-04-22T03:39:43.215Z,33.57
2023-04-22T03:42:15.114Z,33.58
2023-04-22T03:44:47.542Z,33.60
2023-04-22T03:47:20.529Z,33.61
2023-04-22T03:49:56.419Z,33.58
2023-04-22T03:52:26.849Z,33.57
2023-04-22T03:55:01.974Z,33.62
2023-04-22T03:57:33.326Z,33.63
2023-04-22T04:00:03.790Z,33.63
2023-04-22T04:02:45.353Z,33.62
2023-04-22T04:05:20.200Z,33.64
2023-04-22T04:07:50.912Z,33.64
2023-04-22T04:10:21.283Z,33.69
2023-04-22T04:12:53.761Z,33.65
2023-04-22T04:15:25.726Z,33.75
2023-04-22T04:17:58.629Z,33.69
2023-04-22T04:20:30.909Z,33.73
2023-04-22T04:23:01.710Z,33.73
2023-04-22T04:25:40.015Z,33.73
2023-04-22T04:28:15.327Z,33.66
2023-04-22T04:30:45.691Z,33.66
2023-04-22T04:33:19.129Z,33.67
2023-04-22T04:35:50.679Z,33.69
2023-04-22T04:38:24.834Z,33.72
2023-04-22T04:40:56.289Z,33.73
2023-04-22T04:43:28.454Z,33.73
2023-04-22T04:46:11.864Z,33.74
2023-04-22T04:48:44.765Z,33.78
2023-04-22T04:51:15.963Z,33.82
2023-04-22T04:53:53.694Z,33.85
2023-04-22T04:56:24.327Z,33.83
2023-04-22T04:58:55.095Z,33.80
2023-04-22T05:01:28.294Z,33.81
2023-04-22T05:04:04.510Z,33.80
2023-04-22T05:06:38.111Z,33.82
2023-04-22T05:09:10.337Z,33.81
2023-04-22T05:11:40.740Z,33.82
2023-04-22T05:14:19.229Z,33.84
2023-04-22T05:16:50.701Z,33.85
2023-04-22T05:19:21.439Z,33.85
2023-04-22T05:21:52.929Z,33.84
2023-04-22T05:24:24.308Z,33.81
2023-04-22T05:26:54.322Z,33.88
2023-04-22T05:29:24.506Z,33.86
2023-04-22T05:31:55.011Z,33.90
2023-04-22T05:34:25.749Z,33.92
2023-04-22T05:36:58.092Z,33.94
2023-04-22T05:39:29.292Z,33.96
2023-04-22T05:42:02.375Z,33.95
2023-04-22T05:44:33.978Z,33.98
2023-04-22T05:47:04.823Z,34.02
2023-04-22T05:49:35.227Z,33.99
2023-04-22T05:52:28.158Z,33.97
2023-04-22T05:55:05.336Z,34.04
2023-04-22T05:57:35.746Z,33.99
2023-04-22T06:00:09.657Z,34.00
2023-04-22T06:02:54.606Z,34.01
2023-04-22T06:05:25.237Z,34.00
2023-04-22T06:07:55.566Z,34.04
2023-04-22T06:10:26.253Z,34.03
2023-04-22T06:12:56.950Z,34.02
2023-04-22T06:15:28.821Z,34.04
2023-04-22T06:17:59.777Z,34.06
2023-04-22T06:20:30.245Z,34.09
2023-04-22T06:23:00.401Z,34.12
2023-04-22T06:25:30.740Z,34.10
2023-04-22T06:28:04.449Z,34.12
2023-04-22T06:30:37.950Z,34.11
2023-04-22T06:33:08.640Z,34.12
2023-04-22T06:35:39.148Z,34.13
2023-04-22T06:38:09.849Z,34.11
2023-04-22T06:40:48.532Z,34.15
2023-04-22T06:43:25.868Z,34.15
2023-04-22T06:46:28.416Z,34.18
2023-04-22T06:49:24.146Z,34.21
2023-04-22T06:52:14.955Z,34.24
2023-04-22T06:54:45.305Z,34.26
2023-04-22T06:57:15.942Z,34.27
2023-04-22T06:59:47.159Z,34.26
2023-04-22T07:02:18.481Z,34.22
2023-04-22T07:04:49.057Z,34.25
2023-04-22T07:07:19.249Z,34.27
2023-04-22T07:09:49.964Z,34.28
2023-04-22T07:12:20.242Z,34.27
2023-04-22T07:14:52.276Z,34.34
2023-04-22T07:17:24.877Z,34.34
2023-04-22T07:19:55.896Z,34.31
2023-04-22T07:22:26.329Z,34.37
2023-04-22T07:24:56.707Z,34.36
2023-04-22T07:27:27.750Z,34.36
2023-04-22T07:29:57.698Z,34.39
2023-04-22T07:32:28.624Z,34.42
2023-04-22T07:34:58.630Z,34.40
2023-04-22T07:37:28.969Z,34.42
2023-04-22T07:39:59.241Z,34.43
2023-04-22T07:42:29.795Z,34.44
2023-04-22T07:45:00.219Z,34.49
2023-04-22T07:47:30.588Z,34.50
2023-04-22T07:50:00.916Z,34.54
2023-04-22T07:52:32.407Z,34.52
2023-04-22T07:55:02.958Z,34.57
2023-04-22T07:57:33.377Z,34.60
2023-04-22T08:00:04.309Z,34.63
2023-04-22T08:02:41.959Z,34.68
2023-04-22T08:05:13.825Z,34.71
2023-04-22T08:07:44.701Z,34.71
2023-04-22T08:10:15.101Z,34.72
2023-04-22T08:12:45.420Z,34.71
2023-04-22T08:15:15.841Z,34.73
2023-04-22T08:17:46.736Z,34.72
2023-04-22T08:20:17.964Z,34.75
2023-04-22T08:22:49.680Z,34.75
2023-04-22T08:25:20.220Z,34.78
2023-04-22T08:27:50.509Z,34.79
2023-04-22T08:30:21.377Z,34.76
2023-04-22T08:32:51.865Z,34.72
2023-04-22T08:35:22.696Z,34.74
2023-04-22T08:37:53.025Z,34.75
2023-04-22T08:40:23.495Z,34.75
2023-04-22T08:42:55.456Z,34.75
2023-04-22T08:45:26.239Z,34.78
2023-04-22T08:47:58.024Z,34.75
2023-04-22T08:50:28.777Z,34.74
2023-04-22T08:52:59.202Z,34.75
2023-04-22T08:55:29.911Z,34.73
2023-04-22T08:58:01.847Z,34.75
2023-04-22T09:00:34.754Z,34.76
2023-04-22T09:03:07.942Z,34.78
2023-04-22T09:05:41.780Z,34.79
2023-04-22T09:08:14.447Z,34.81
2023-04-22T09:10:45.009Z,34.84
2023-04-22T09:13:17.206Z,34.83
2023-04-22T09:15:47.515Z,34.85
2023-04-22T09:18:21.662Z,34.84
2023-04-22T09:20:57.547Z,34.82
2023-04-22T09:23:27.985Z,34.82
2023-04-22T09:26:00.661Z,34.83
2023-04-22T09:28:30.908Z,34.84
2023-04-22T09:31:05.267Z,34.83
2023-04-22T09:33:36.153Z,34.83
2023-04-22T09:36:13.067Z,34.80
2023-04-22T09:38:43.576Z,34.77
2023-04-22T09:41:17.614Z,34.77
2023-04-22T09:43:49.249Z,34.75
2023-04-22T09:46:20.569Z,34.75
2023-04-22T09:48:53.284Z,34.76
2023-04-22T09:51:23.988Z,34.82
2023-04-22T09:54:07.533Z,34.84
2023-04-22T09:56:51.002Z,34.82
2023-04-22T09:59:30.531Z,34.83
2023-04-22T10:02:09.560Z,34.81
2023-04-22T10:04:40.999Z,34.80
2023-04-22T10:07:11.617Z,34.80
2023-04-22T10:09:42.082Z,34.78
2023-04-22T10:12:14.099Z,34.78
2023-04-22T10:14:45.408Z,34.76
2023-04-22T10:17:16.792Z,34.75
2023-04-22T10:19:50.908Z,34.80
2023-04-22T10:22:21.785Z,34.78
2023-04-22T10:24:52.836Z,34.76
2023-04-22T10:27:24.087Z,34.77
2023-04-22T10:29:54.582Z,34.75
2023-04-22T10:32:25.181Z,34.77
2023-04-22T10:35:13.488Z,34.78
2023-04-22T10:37:48.763Z,34.75
2023-04-22T10:40:21.020Z,34.75
2023-04-22T10:42:54.819Z,34.76
2023-04-22T10:45:28.963Z,34.72
2023-04-22T10:48:07.014Z,34.76
2023-04-22T10:50:37.583Z,34.74
2023-04-22T10:53:39.564Z,34.72
2023-04-22T10:56:23.097Z,34.73
2023-04-22T10:58:53.814Z,34.72
2023-04-22T11:01:24.238Z,34.73
2023-04-22T11:03:54.834Z,34.73
2023-04-22T11:06:29.575Z,34.73
2023-04-22T11:09:20.051Z,34.74
2023-04-22T11:11:50.490Z,34.74
2023-04-22T11:14:21.460Z,34.72
2023-04-22T11:16:54.751Z,34.70
2023-04-22T11:19:25.015Z,34.69
2023-04-22T11:21:56.336Z,34.71
2023-04-22T11:24:26.644Z,34.70
2023-04-22T11:26:59.514Z,34.70
2023-04-22T11:29:29.937Z,34.71
2023-04-22T11:32:00.763Z,34.69
2023-04-22T11:34:32.570Z,34.73
2023-04-22T11:37:03.064Z,34.71
2023-04-22T11:39:50.240Z,34.69
2023-04-22T11:42:30.084Z,34.70
2023-04-22T11:45:00.561Z,34.76
2023-04-22T11:47:33.967Z,34.81
2023-04-22T11:50:11.715Z,34.86
2023-04-22T11:52:55.663Z,34.79
2023-04-22T11:55:41.200Z,34.85
2023-04-22T11:58:14.186Z,34.78
2023-04-22T12:00:50.279Z,34.74
2023-04-22T12:03:22.837Z,34.78
2023-04-22T12:05:58.485Z,34.81
2023-04-22T12:08:34.047Z,34.83
2023-04-22T12:11:09.888Z,34.80
2023-04-22T12:13:40.548Z,34.83
2023-04-22T12:16:20.438Z,34.83
2023-04-22T12:18:53.579Z,34.83
2023-04-22T12:21:27.014Z,34.81
2023-04-22T12:24:03.002Z,34.72
2023-04-22T12:26:33.725Z,34.74
2023-04-22T12:29:04.173Z,34.72
2023-04-22T12:31:34.939Z,34.77
2023-04-22T12:34:06.746Z,34.76
2023-04-22T12:36:37.207Z,34.74
2023-04-22T12:39:07.379Z,34.75
2023-04-22T12:41:37.908Z,34.76
2023-04-22T12:44:08.322Z,34.71
2023-04-22T12:46:39.181Z,34.73
2023-04-22T12:49:09.635Z,34.76
2023-04-22T12:51:40.188Z,34.72
2023-04-22T12:54:10.799Z,34.74
2023-04-22T12:56:41.385Z,34.72
2023-04-22T12:59:11.709Z,34.71
2023-04-22T13:01:42.215Z,34.71
2023-04-22T13:04:12.520Z,34.75
2023-04-22T13:06:44.451Z,34.74
2023-04-22T13:09:15.523Z,34.69
2023-04-22T13:11:45.565Z,34.66
2023-04-22T13:14:15.620Z,34.59
2023-04-22T13:16:45.952Z,34.66
2023-04-22T13:19:16.557Z,34.65
2023-04-22T13:21:47.512Z,34.66
2023-04-22T13:24:17.802Z,34.72
2023-04-22T13:26:47.951Z,34.72
2023-04-22T13:29:18.195Z,34.64
2023-04-22T13:31:48.650Z,34.62
2023-04-22T13:34:18.916Z,34.59
2023-04-22T13:36:49.750Z,34.53
2023-04-22T13:39:20.464Z,34.53
2023-04-22T13:41:50.629Z,34.55
2023-04-22T13:44:21.035Z,34.60
2023-04-22T13:46:51.456Z,34.54
2023-04-22T13:49:21.690Z,34.55
2023-04-22T13:51:52.057Z,34.50
2023-04-22T13:54:22.474Z,34.51
2023-04-22T13:56:53.128Z,34.57
2023-04-22T13:59:23.662Z,34.54
2023-04-22T14:01:54.050Z,34.56
2023-04-22T14:04:25.052Z,34.59
2023-04-22T14:06:55.950Z,34.57
2023-04-22T14:09:27.813Z,34.57
2023-04-22T14:11:58.369Z,34.55
2023-04-22T14:14:28.740Z,34.53
2023-04-22T14:16:59.308Z,34.51
2023-04-22T14:19:31.391Z,34.54
2023-04-22T14:22:01.636Z,34.53
2023-04-22T14:24:32.261Z,34.59
2023-04-22T15:23:10.837Z,34.50
2023-04-22T15:25:41.190Z,34.40
2023-04-22T15:28:11.570Z,34.40
2023-04-22T15:30:43.116Z,34.40
2023-04-22T15:33:13.620Z,34.35
2023-04-22T15:35:45.661Z,34.36
2023-04-22T15:38:16.581Z,34.36
2023-04-22T15:40:46.886Z,34.35
2023-04-22T15:43:17.374Z,34.36
2023-04-22T15:45:47.689Z,34.33
2023-04-22T15:48:18.040Z,34.33
2023-04-22T15:50:48.319Z,34.32
2023-04-22T15:53:18.592Z,34.29
2023-04-22T15:55:48.943Z,34.29
2023-04-22T15:58:19.285Z,34.28
2023-04-22T16:00:49.654Z,34.30
2023-04-22T16:03:20.240Z,34.27
2023-04-22T16:05:50.780Z,34.23
2023-04-22T16:08:21.074Z,34.25
2023-04-22T16:10:51.648Z,34.24
2023-04-22T16:13:21.974Z,34.22
2023-04-22T16:15:52.521Z,34.24
2023-04-22T16:18:22.969Z,34.24
2023-04-22T16:20:53.456Z,34.23
2023-04-22T16:23:23.858Z,34.23
2023-04-22T16:25:54.290Z,34.20
2023-04-22T16:28:25.084Z,34.21
2023-04-22T16:30:55.570Z,34.20
2023-04-22T16:33:26.050Z,34.21
2023-04-22T16:35:56.213Z,34.19
2023-04-22T16:38:26.564Z,34.20
2023-04-22T16:40:56.966Z,34.19
2023-04-22T16:43:27.470Z,34.17
2023-04-22T16:45:57.769Z,34.17
2023-04-22T16:48:28.125Z,34.15
2023-04-22T16:50:58.424Z,34.16
2023-04-22T16:53:28.886Z,34.13
2023-04-22T16:55:59.240Z,34.15
2023-04-22T16:58:30.088Z,34.12
2023-04-22T17:01:00.486Z,34.14
2023-04-22T17:03:31.118Z,34.13
2023-04-22T17:06:01.621Z,34.14
2023-04-22T17:08:31.892Z,34.14
2023-04-22T17:11:02.175Z,34.11
2023-04-22T17:13:32.492Z,34.12
2023-04-22T17:16:03.266Z,34.14
2023-04-22T17:18:33.704Z,34.10
2023-04-22T17:21:04.447Z,34.10
2023-04-22T17:23:34.849Z,34.09
2023-04-22T17:26:05.139Z,34.09
2023-04-22T17:28:35.620Z,34.10
2023-04-22T17:31:06.509Z,34.08
2023-04-22T17:33:40.152Z,34.06
2023-04-22T17:36:10.761Z,34.08
2023-04-22T17:38:43.422Z,34.08
2023-04-22T17:41:13.807Z,34.06
2023-04-22T17:43:44.258Z,34.04
2023-04-22T17:46:14.662Z,34.03
2023-04-22T17:48:45.278Z,34.06
2023-04-22T17:51:16.925Z,34.05
2023-04-22T17:53:47.187Z,34.06
2023-04-22T17:56:17.575Z,34.06
2023-04-22T17:58:48.043Z,34.02
2023-04-22T18:01:18.476Z,34.03
2023-04-22T18:03:48.962Z,34.03
2023-04-22T18:06:19.602Z,34.04
2023-04-22T18:08:49.833Z,34.05
2023-04-22T18:11:20.011Z,34.05
2023-04-22T18:13:50.432Z,34.03
2023-04-22T18:16:20.814Z,34.04
2023-04-22T18:18:51.249Z,34.03
2023-04-22T18:21:21.364Z,33.98
2023-04-22T18:23:51.798Z,34.02
2023-04-22T18:26:22.049Z,34.03
2023-04-22T18:28:52.340Z,34.02
2023-04-22T18:31:23.329Z,34.00
2023-04-22T18:33:53.657Z,33.98
2023-04-22T18:36:23.996Z,33.98
2023-04-22T18:38:54.512Z,33.97
2023-04-22T18:41:24.760Z,33.98
2023-04-22T18:43:55.946Z,33.98
2023-04-22T18:46:25.975Z,33.99
2023-04-22T18:48:56.199Z,33.97
2023-04-22T18:51:26.634Z,33.97
2023-04-22T18:53:57.057Z,33.96
2023-04-22T18:56:28.087Z,33.96
2023-04-22T18:58:58.651Z,33.95
2023-04-22T19:01:28.975Z,33.93
2023-04-22T19:03:59.473Z,33.92
2023-04-22T19:06:31.364Z,33.91
2023-04-22T19:09:01.533Z,33.89
2023-04-22T19:11:31.785Z,33.88
2023-04-22T19:14:04.216Z,33.84
2023-04-22T19:16:34.447Z,33.83
2023-04-22T19:19:04.831Z,33.82
2023-04-22T19:21:35.621Z,33.80
2023-04-22T19:24:06.258Z,33.80
2023-04-22T19:26:36.752Z,33.78
2023-04-22T19:29:07.068Z,33.77
2023-04-22T19:31:38.140Z,33.80
2023-04-22T19:34:08.353Z,33.82
2023-04-22T19:36:38.970Z,33.82
2023-04-22T19:39:09.404Z,33.80
2023-04-22T19:41:40.498Z,33.78
2023-04-22T19:44:10.559Z,33.78
2023-04-22T19:46:40.952Z,33.77
2023-04-22T19:49:11.724Z,33.77
2023-04-22T19:51:43.388Z,33.76
2023-04-22T19:54:15.431Z,33.74
2023-04-22T19:56:46.408Z,33.75
2023-04-22T19:59:17.187Z,33.78
2023-04-22T20:01:47.969Z,33.76
2023-04-22T20:04:18.988Z,33.73
2023-04-22T20:06:49.783Z,33.78
2023-04-22T20:09:21.607Z,33.71
2023-04-22T20:11:52.604Z,33.70
2023-04-22T20:14:24.649Z,33.72
2023-04-22T20:16:55.676Z,33.70
2023-04-22T20:19:25.820Z,33.71
2023-04-22T20:21:57.722Z,33.68
2023-04-22T20:24:35.078Z,33.66
2023-04-22T20:27:06.771Z,33.67
2023-04-22T20:29:40.473Z,33.65
2023-04-22T20:32:11.787Z,33.68
2023-04-22T20:34:42.090Z,33.68
2023-04-22T20:37:15.360Z,33.70
2023-04-22T20:39:46.815Z,33.65
2023-04-22T20:42:17.091Z,33.64
2023-04-22T20:44:48.316Z,33.64
2023-04-22T20:47:18.875Z,33.64
